sensor_id;sensor_type;location;lat;lon;timestamp;pressure;altitude;pressure_sealevel;temperature;humidity
45541;BME280;31265;49.680;8.608;2023-04-08T00:01:14;100925.22;;;7.75;100.00
45541;BME280;31265;49.680;8.608;2023-04-08T00:03:43;100930.22;;;7.77;100.00
45541;BME280;31265;49.680;8.608;2023-04-08T00:06:12;100932.31;;;7.70;100.00
45541;BME280;31265;49.680;8.608;2023-04-08T00:08:43;100923.56;;;7.66;100.00
45541;BME280;31265;49.680;8.608;2023-04-08T00:11:11;100931.13;;;7.66;100.00
45541;BME280;31265;49.680;8.608;2023-04-08T00:13:40;100928.13;;;7.64;100.00
45541;BME280;31265;49.680;8.608;2023-04-08T00:16:08;100940.09;;;7.72;100.00
45541;BME280;31265;49.680;8.608;2023-04-08T00:18:39;100940.16;;;7.66;100.00
45541;BME280;31265;49.680;8.608;2023-04-08T00:21:17;100937.84;;;7.70;100.00
45541;BME280;31265;49.680;8.608;2023-04-08T00:23:48;100939.72;;;7.62;100.00
45541;BME280;31265;49.680;8.608;2023-04-08T00:26:16;100945.03;;;7.60;100.00
45541;BME280;31265;49.680;8.608;2023-04-08T00:28:45;100940.78;;;7.59;100.00
45541;BME280;31265;49.680;8.608;2023-04-08T00:31:14;100941.53;;;7.60;100.00
45541;BME280;31265;49.680;8.608;2023-04-08T00:33:44;100936.22;;;7.62;100.00
45541;BME280;31265;49.680;8.608;2023-04-08T00:36:15;100937.94;;;7.65;100.00
45541;BME280;31265;49.680;8.608;2023-04-08T00:38:47;100931.22;;;7.60;100.00
45541;BME280;31265;49.680;8.608;2023-04-08T00:41:17;100939.50;;;7.60;100.00
45541;BME280;31265;49.680;8.608;2023-04-08T00:43:46;100944.28;;;7.60;100.00
45541;BME280;31265;49.680;8.608;2023-04-08T00:46:14;100940.78;;;7.59;100.00
45541;BME280;31265;49.680;8.608;2023-04-08T00:48:44;100938.22;;;7.61;100.00
45541;BME280;31265;49.680;8.608;2023-04-08T00:51:16;100939.63;;;7.68;100.00
45541;BME280;31265;49.680;8.608;2023-04-08T00:53:51;100940.16;;;7.66;100.00
45541;BME280;31265;49.680;8.608;2023-04-08T00:56:19;100943.75;;;7.61;100.00
45541;BME280;31265;49.680;8.608;2023-04-08T00:58:49;100940.38;;;7.68;100.00
45541;BME280;31265;49.680;8.608;2023-04-08T01:01:30;100948.03;;;7.62;100.00
45541;BME280;31265;49.680;8.608;2023-04-08T01:04:06;100951.63;;;7.57;100.00
45541;BME280;31265;49.680;8.608;2023-04-08T01:06:39;100945.31;;;7.57;100.00
45541;BME280;31265;49.680;8.608;2023-04-08T01:09:17;100941.59;;;7.54;100.00
45541;BME280;31265;49.680;8.608;2023-04-08T01:11:48;100948.31;;;7.59;100.00
45541;BME280;31265;49.680;8.608;2023-04-08T01:14:20;100947.28;;;7.62;100.00
45541;BME280;31265;49.680;8.608;2023-04-08T01:16:54;100949.28;;;7.61;100.00
45541;BME280;31265;49.680;8.608;2023-04-08T01:19:28;100951.63;;;7.57;100.00
45541;BME280;31265;49.680;8.608;2023-04-08T01:22:04;100949.88;;;7.54;100.00
45541;BME280;31265;49.680;8.608;2023-04-08T01:24:39;100951.47;;;7.49;100.00
45541;BME280;31265;49.680;8.608;2023-04-08T01:27:12;100949.97;;;7.48;100.00
45541;BME280;31265;49.680;8.608;2023-04-08T01:29:42;100950.72;;;7.49;100.00
45541;BME280;31265;49.680;8.608;2023-04-08T01:32:12;100946.25;;;7.46;100.00
45541;BME280;31265;49.680;8.608;2023-04-08T01:34:43;100941.06;;;7.42;100.00
45541;BME280;31265;49.680;8.608;2023-04-08T01:37:13;100940.28;;;7.42;100.00
45541;BME280;31265;49.680;8.608;2023-04-08T01:39:46;100936.56;;;7.39;100.00
45541;BME280;31265;49.680;8.608;2023-04-08T01:42:19;100943.88;;;7.37;100.00
45541;BME280;31265;49.680;8.608;2023-04-08T01:44:51;100946.13;;;7.38;100.00
45541;BME280;31265;49.680;8.608;2023-04-08T01:47:21;100937.00;;;7.43;100.00
45541;BME280;31265;49.680;8.608;2023-04-08T01:49:51;100937.38;;;7.34;100.00
45541;BME280;31265;49.680;8.608;2023-04-08T01:52:21;100943.13;;;7.36;100.00
45541;BME280;31265;49.680;8.608;2023-04-08T01:54:53;100940.47;;;7.30;100.00
45541;BME280;31265;49.680;8.608;2023-04-08T01:57:25;100940.00;;;7.26;100.00
45541;BME280;31265;49.680;8.608;2023-04-08T01:59:58;100938.06;;;7.21;100.00
45541;BME280;31265;49.680;8.608;2023-04-08T02:02:46;100940.00;;;7.26;100.00
45541;BME280;31265;49.680;8.608;2023-04-08T02:05:15;100947.88;;;7.22;100.00
45541;BME280;31265;49.680;8.608;2023-04-08T02:07:43;100938.63;;;7.20;100.00
45541;BME280;31265;49.680;8.608;2023-04-08T02:10:14;100946.13;;;7.19;100.00
45541;BME280;31265;49.680;8.608;2023-04-08T02:12:44;100955.38;;;7.22;100.00
45541;BME280;31265;49.680;8.608;2023-04-08T02:15:13;100953.16;;;7.20;100.00
45541;BME280;31265;49.680;8.608;2023-04-08T02:17:45;100952.19;;;7.18;100.00
45541;BME280;31265;49.680;8.608;2023-04-08T02:20:21;100953.75;;;7.13;100.00
45541;BME280;31265;49.680;8.608;2023-04-08T02:22:56;100948.25;;;7.13;100.00
45541;BME280;31265;49.680;8.608;2023-04-08T02:25:29;100957.56;;;7.10;100.00
45541;BME280;31265;49.680;8.608;2023-04-08T02:28:02;100955.56;;;7.10;100.00
45541;BME280;31265;49.680;8.608;2023-04-08T02:30:34;100950.53;;;7.09;100.00
45541;BME280;31265;49.680;8.608;2023-04-08T02:33:03;100951.50;;;7.11;100.00
45541;BME280;31265;49.680;8.608;2023-04-08T02:35:33;100950.41;;;7.20;100.00
45541;BME280;31265;49.680;8.608;2023-04-08T02:38:02;100952.25;;;7.12;100.00
45541;BME280;31265;49.680;8.608;2023-04-08T02:40:35;100950.03;;;7.10;100.00
45541;BME280;31265;49.680;8.608;2023-04-08T02:43:05;100952.25;;;7.12;100.00
45541;BME280;31265;49.680;8.608;2023-04-08T02:45:37;100956.59;;;7.07;100.00
45541;BME280;31265;49.680;8.608;2023-04-08T02:48:06;100957.34;;;7.08;100.00
45541;BME280;31265;49.680;8.608;2023-04-08T02:50:34;100948.53;;;7.09;100.00
45541;BME280;31265;49.680;8.608;2023-04-08T02:53:02;100952.06;;;7.10;100.00
45541;BME280;31265;49.680;8.608;2023-04-08T02:55:34;100956.59;;;7.07;100.00
45541;BME280;31265;49.680;8.608;2023-04-08T02:58:05;100951.81;;;7.08;100.00
45541;BME280;31265;49.680;8.608;2023-04-08T03:00:34;100957.09;;;7.06;100.00
45541;BME280;31265;49.680;8.608;2023-04-08T03:03:03;100961.34;;;7.07;100.00
45541;BME280;31265;49.680;8.608;2023-04-08T03:05:34;100962.31;;;7.09;100.00
45541;BME280;31265;49.680;8.608;2023-04-08T03:08:03;100958.31;;;7.10;100.00
45541;BME280;31265;49.680;8.608;2023-04-08T03:10:33;100947.34;;;7.05;100.00
45541;BME280;31265;49.680;8.608;2023-04-08T03:13:06;100949.88;;;7.03;100.00
45541;BME280;31265;49.680;8.608;2023-04-08T03:15:37;100953.16;;;7.01;100.00
45541;BME280;31265;49.680;8.608;2023-04-08T03:18:05;100956.44;;;7.00;100.00
45541;BME280;31265;49.680;8.608;2023-04-08T03:20:34;100955.41;;;7.03;100.00
45541;BME280;31265;49.680;8.608;2023-04-08T03:23:02;100960.91;;;7.03;100.00
45541;BME280;31265;49.680;8.608;2023-04-08T03:25:31;100958.81;;;7.09;100.00
45541;BME280;31265;49.680;8.608;2023-04-08T03:27:59;100954.66;;;7.02;100.00
45541;BME280;31265;49.680;8.608;2023-04-08T03:30:29;100963.00;;;6.97;100.00
45541;BME280;31265;49.680;8.608;2023-04-08T03:32:57;100958.59;;;7.07;100.00
45541;BME280;31265;49.680;8.608;2023-04-08T03:35:25;100959.41;;;7.02;100.00
45541;BME280;31265;49.680;8.608;2023-04-08T03:37:54;100966.44;;;7.03;100.00
45541;BME280;31265;49.680;8.608;2023-04-08T03:40:26;100967.41;;;7.05;100.00
45541;BME280;31265;49.680;8.608;2023-04-08T03:42:54;100965.53;;;7.14;100.00
45541;BME280;31265;49.680;8.608;2023-04-08T03:45:23;100970.03;;;6.98;100.00
45541;BME280;31265;49.680;8.608;2023-04-08T03:47:53;100968.81;;;6.93;100.00
45541;BME280;31265;49.680;8.608;2023-04-08T03:50:22;100974.09;;;6.91;100.00
45541;BME280;31265;49.680;8.608;2023-04-08T03:52:50;100968.66;;;6.85;100.00
45541;BME280;31265;49.680;8.608;2023-04-08T03:55:18;100968.94;;;6.82;100.00
45541;BME280;31265;49.680;8.608;2023-04-08T03:57:47;100974.78;;;6.78;100.00
45541;BME280;31265;49.680;8.608;2023-04-08T04:00:16;100968.50;;;6.78;100.00
45541;BME280;31265;49.680;8.608;2023-04-08T04:02:44;100968.28;;;6.76;100.00
45541;BME280;31265;49.680;8.608;2023-04-08T04:05:14;100973.88;;;6.70;100.00
45541;BME280;31265;49.680;8.608;2023-04-08T04:07:44;100978.19;;;6.65;100.00
45541;BME280;31265;49.680;8.608;2023-04-08T04:10:12;100977.47;;;6.59;100.00
45541;BME280;31265;49.680;8.608;2023-04-08T04:12:43;100980.53;;;6.56;100.00
45541;BME280;31265;49.680;8.608;2023-04-08T04:15:12;100982.34;;;6.53;100.00
45541;BME280;31265;49.680;8.608;2023-04-08T04:17:41;100981.56;;;6.53;100.00
45541;BME280;31265;49.680;8.608;2023-04-08T04:20:12;100978.59;;;6.51;100.00
45541;BME280;31265;49.680;8.608;2023-04-08T04:22:42;100981.13;;;6.49;100.00
45541;BME280;31265;49.680;8.608;2023-04-08T04:25:11;100985.13;;;6.47;100.00
45541;BME280;31265;49.680;8.608;2023-04-08T04:27:40;100977.91;;;6.44;100.00
45541;BME280;31265;49.680;8.608;2023-04-08T04:30:09;100989.63;;;6.51;100.00
45541;BME280;31265;49.680;8.608;2023-04-08T04:32:41;100996.16;;;6.47;100.00
45541;BME280;31265;49.680;8.608;2023-04-08T04:35:10;100996.63;;;6.52;100.00
45541;BME280;31265;49.680;8.608;2023-04-08T04:37:46;100993.63;;;6.50;100.00
45541;BME280;31265;49.680;8.608;2023-04-08T04:40:16;100997.66;;;6.49;100.00
45541;BME280;31265;49.680;8.608;2023-04-08T04:42:44;100993.63;;;6.50;100.00
45541;BME280;31265;49.680;8.608;2023-04-08T04:45:14;101000.41;;;6.73;100.00
45541;BME280;31265;49.680;8.608;2023-04-08T04:47:43;100996.50;;;6.63;100.00
45541;BME280;31265;49.680;8.608;2023-04-08T04:50:11;100992.78;;;6.60;100.00
45541;BME280;31265;49.680;8.608;2023-04-08T04:52:41;100996.72;;;6.65;100.00
45541;BME280;31265;49.680;8.608;2023-04-08T04:55:10;101007.16;;;6.53;100.00
45541;BME280;31265;49.680;8.608;2023-04-08T04:57:39;101007.66;;;6.52;100.00
45541;BME280;31265;49.680;8.608;2023-04-08T05:00:08;101013.16;;;6.52;100.00
45541;BME280;31265;49.680;8.608;2023-04-08T05:02:39;101013.47;;;6.48;100.00
45541;BME280;31265;49.680;8.608;2023-04-08T05:05:08;101011.53;;;6.37;100.00
45541;BME280;31265;49.680;8.608;2023-04-08T05:07:37;101008.13;;;6.31;100.00
45541;BME280;31265;49.680;8.608;2023-04-08T05:10:06;101015.50;;;6.17;100.00
45541;BME280;31265;49.680;8.608;2023-04-08T05:12:36;101015.50;;;6.17;100.00
45541;BME280;31265;49.680;8.608;2023-04-08T05:15:05;101019.53;;;6.11;100.00
45541;BME280;31265;49.680;8.608;2023-04-08T05:17:33;101016.06;;;6.10;100.00
45541;BME280;31265;49.680;8.608;2023-04-08T05:20:02;101019.91;;;5.96;100.00
45541;BME280;31265;49.680;8.608;2023-04-08T05:22:31;101026.25;;;5.85;100.00
45541;BME280;31265;49.680;8.608;2023-04-08T05:25:00;101027.81;;;5.75;100.00
45541;BME280;31265;49.680;8.608;2023-04-08T05:27:41;101029.63;;;5.67;100.00
45541;BME280;31265;49.680;8.608;2023-04-08T05:30:10;101033.44;;;5.58;100.00
45541;BME280;31265;49.680;8.608;2023-04-08T05:32:38;101040.00;;;5.49;100.00
45541;BME280;31265;49.680;8.608;2023-04-08T05:35:07;101039.28;;;5.43;100.00
45541;BME280;31265;49.680;8.608;2023-04-08T05:37:36;101041.06;;;5.35;100.00
45541;BME280;31265;49.680;8.608;2023-04-08T05:40:06;101040.59;;;5.31;100.00
45541;BME280;31265;49.680;8.608;2023-04-08T05:42:35;101048.59;;;5.29;100.00
45541;BME280;31265;49.680;8.608;2023-04-08T05:45:07;101041.38;;;5.26;100.00
45541;BME280;31265;49.680;8.608;2023-04-08T05:47:35;101050.88;;;5.25;100.00
45541;BME280;31265;49.680;8.608;2023-04-08T05:50:05;101048.13;;;5.25;100.00
45541;BME280;31265;49.680;8.608;2023-04-08T05:52:33;101052.91;;;5.24;100.00
45541;BME280;31265;49.680;8.608;2023-04-08T05:55:02;101053.63;;;5.25;100.00
45541;BME280;31265;49.680;8.608;2023-04-08T05:57:32;101058.13;;;5.28;100.00
45541;BME280;31265;49.680;8.608;2023-04-08T06:00:01;101065.88;;;5.29;100.00
45541;BME280;31265;49.680;8.608;2023-04-08T06:02:33;101065.09;;;5.29;100.00
45541;BME280;31265;49.680;8.608;2023-04-08T06:05:02;101079.34;;;5.33;100.00
45541;BME280;31265;49.680;8.608;2023-04-08T06:07:32;101076.84;;;5.35;100.00
45541;BME280;31265;49.680;8.608;2023-04-08T06:10:00;101069.56;;;5.43;100.00
45541;BME280;31265;49.680;8.608;2023-04-08T06:12:29;101077.03;;;5.48;100.00
45541;BME280;31265;49.680;8.608;2023-04-08T06:14:59;101086.47;;;5.58;100.00
45541;BME280;31265;49.680;8.608;2023-04-08T06:17:27;101087.47;;;5.67;100.00
45541;BME280;31265;49.680;8.608;2023-04-08T06:19:57;101089.88;;;5.81;100.00
45541;BME280;31265;49.680;8.608;2023-04-08T06:22:26;101094.31;;;5.90;100.00
45541;BME280;31265;49.680;8.608;2023-04-08T06:24:57;101089.50;;;6.02;100.00
45541;BME280;31265;49.680;8.608;2023-04-08T06:27:25;101089.47;;;6.08;100.00
45541;BME280;31265;49.680;8.608;2023-04-08T06:29:53;101083.94;;;6.13;100.00
45541;BME280;31265;49.680;8.608;2023-04-08T06:32:22;101094.09;;;6.24;100.00
45541;BME280;31265;49.680;8.608;2023-04-08T06:34:52;101092.84;;;6.25;100.00
45541;BME280;31265;49.680;8.608;2023-04-08T06:37:22;101101.03;;;6.36;100.00
45541;BME280;31265;49.680;8.608;2023-04-08T06:39:51;101105.44;;;6.51;100.00
45541;BME280;31265;49.680;8.608;2023-04-08T06:42:20;101095.78;;;6.63;100.00
45541;BME280;31265;49.680;8.608;2023-04-08T06:45:03;101091.03;;;6.88;100.00
45541;BME280;31265;49.680;8.608;2023-04-08T06:47:31;101096.94;;;6.98;100.00
45541;BME280;31265;49.680;8.608;2023-04-08T06:50:00;101100.69;;;7.19;100.00
45541;BME280;31265;49.680;8.608;2023-04-08T06:52:37;101092.06;;;7.28;100.00
45541;BME280;31265;49.680;8.608;2023-04-08T06:55:09;101097.53;;;7.53;100.00
45541;BME280;31265;49.680;8.608;2023-04-08T06:57:42;101097.44;;;7.59;100.00
45541;BME280;31265;49.680;8.608;2023-04-08T07:00:10;101094.47;;;7.38;100.00
45541;BME280;31265;49.680;8.608;2023-04-08T07:02:44;101100.00;;;7.38;100.00
45541;BME280;31265;49.680;8.608;2023-04-08T07:05:14;101097.88;;;7.44;100.00
45541;BME280;31265;49.680;8.608;2023-04-08T07:07:46;101104.78;;;7.37;100.00
45541;BME280;31265;49.680;8.608;2023-04-08T07:10:15;101100.59;;;7.68;100.00
45541;BME280;31265;49.680;8.608;2023-04-08T07:12:45;101102.06;;;7.88;100.00
45541;BME280;31265;49.680;8.608;2023-04-08T07:15:14;101110.84;;;8.06;100.00
45541;BME280;31265;49.680;8.608;2023-04-08T07:17:46;101109.94;;;8.16;100.00
45541;BME280;31265;49.680;8.608;2023-04-08T07:20:17;101112.31;;;8.58;100.00
45541;BME280;31265;49.680;8.608;2023-04-08T07:22:49;101119.56;;;8.74;100.00
45541;BME280;31265;49.680;8.608;2023-04-08T07:25:20;101115.25;;;9.06;100.00
45541;BME280;31265;49.680;8.608;2023-04-08T07:27:50;101119.25;;;9.04;100.00
45541;BME280;31265;49.680;8.608;2023-04-08T07:30:27;101123.00;;;9.34;100.00
45541;BME280;31265;49.680;8.608;2023-04-08T07:33:01;101125.72;;;9.60;100.00
45541;BME280;31265;49.680;8.608;2023-04-08T07:35:29;101125.81;;;9.68;100.00
45541;BME280;31265;49.680;8.608;2023-04-08T07:38:00;101136.19;;;9.88;100.00
45541;BME280;31265;49.680;8.608;2023-04-08T07:40:33;101135.59;;;9.82;100.00
45541;BME280;31265;49.680;8.608;2023-04-08T07:43:09;101139.81;;;9.97;100.00
45541;BME280;31265;49.680;8.608;2023-04-08T07:45:37;101149.16;;;10.07;100.00
45541;BME280;31265;49.680;8.608;2023-04-08T07:48:10;101144.19;;;9.92;100.00
45541;BME280;31265;49.680;8.608;2023-04-08T07:50:39;101142.13;;;9.58;100.00
45541;BME280;31265;49.680;8.608;2023-04-08T07:53:35;101143.72;;;9.54;100.00
45541;BME280;31265;49.680;8.608;2023-04-08T07:56:10;101143.50;;;9.52;100.00
45541;BME280;31265;49.680;8.608;2023-04-08T07:58:41;101149.22;;;9.80;100.00
45541;BME280;31265;49.680;8.608;2023-04-08T08:01:16;101148.50;;;10.14;100.00
45541;BME280;31265;49.680;8.608;2023-04-08T08:03:47;101149.38;;;9.96;100.00
45541;BME280;31265;49.680;8.608;2023-04-08T08:06:23;101143.75;;;9.88;100.00
45541;BME280;31265;49.680;8.608;2023-04-08T08:08:56;101152.78;;;10.02;100.00
45541;BME280;31265;49.680;8.608;2023-04-08T08:11:41;101159.31;;;10.25;100.00
45541;BME280;31265;49.680;8.608;2023-04-08T08:14:12;101156.03;;;10.48;100.00
45541;BME280;31265;49.680;8.608;2023-04-08T08:16:41;101153.50;;;10.79;100.00
45541;BME280;31265;49.680;8.608;2023-04-08T08:19:13;101160.34;;;10.77;100.00
45541;BME280;31265;49.680;8.608;2023-04-08T08:21:51;101161.81;;;11.36;100.00
45541;BME280;31265;49.680;8.608;2023-04-08T08:24:20;101159.84;;;11.88;100.00
45541;BME280;31265;49.680;8.608;2023-04-08T08:26:50;101162.56;;;11.80;100.00
45541;BME280;31265;49.680;8.608;2023-04-08T08:29:21;101159.63;;;11.86;100.00
45541;BME280;31265;49.680;8.608;2023-04-08T08:31:59;101163.78;;;12.16;99.11
45541;BME280;31265;49.680;8.608;2023-04-08T08:34:29;101168.81;;;12.17;88.61
45541;BME280;31265;49.680;8.608;2023-04-08T08:36:57;101162.91;;;12.36;83.62
45541;BME280;31265;49.680;8.608;2023-04-08T08:39:27;101167.56;;;12.41;81.43
45541;BME280;31265;49.680;8.608;2023-04-08T08:41:59;101169.13;;;11.91;79.73
45541;BME280;31265;49.680;8.608;2023-04-08T08:44:28;101176.88;;;11.84;84.41
45541;BME280;31265;49.680;8.608;2023-04-08T08:46:57;101172.22;;;11.79;88.59
45541;BME280;31265;49.680;8.608;2023-04-08T08:49:28;101178.28;;;12.14;88.61
45541;BME280;31265;49.680;8.608;2023-04-08T08:51:59;101174.94;;;12.31;92.22
45541;BME280;31265;49.680;8.608;2023-04-08T08:54:29;101178.66;;;12.18;82.44
45541;BME280;31265;49.680;8.608;2023-04-08T08:56:58;101176.97;;;12.23;86.04
45541;BME280;31265;49.680;8.608;2023-04-08T08:59:29;101175.72;;;12.24;87.23
45541;BME280;31265;49.680;8.608;2023-04-08T09:01:57;101178.50;;;12.47;82.33
45541;BME280;31265;49.680;8.608;2023-04-08T09:04:26;101181.44;;;12.26;84.92
45541;BME280;31265;49.680;8.608;2023-04-08T09:07:08;101181.06;;;12.14;79.88
45541;BME280;31265;49.680;8.608;2023-04-08T09:09:51;101180.16;;;12.42;83.43
45541;BME280;31265;49.680;8.608;2023-04-08T09:12:20;101187.59;;;12.55;83.96
45541;BME280;31265;49.680;8.608;2023-04-08T09:15:02;101186.13;;;12.46;85.63
45541;BME280;31265;49.680;8.608;2023-04-08T09:17:32;101186.84;;;12.39;88.14
45541;BME280;31265;49.680;8.608;2023-04-08T09:20:09;101186.84;;;12.39;83.91
45541;BME280;31265;49.680;8.608;2023-04-08T09:23:02;101187.13;;;11.97;86.17
45541;BME280;31265;49.680;8.608;2023-04-08T09:25:32;101180.28;;;12.14;87.09
45541;BME280;31265;49.680;8.608;2023-04-08T09:28:03;101186.06;;;12.16;84.52
45541;BME280;31265;49.680;8.608;2023-04-08T09:30:33;101199.63;;;12.19;89.48
45541;BME280;31265;49.680;8.608;2023-04-08T09:33:01;101203.03;;;11.89;95.57
45541;BME280;31265;49.680;8.608;2023-04-08T09:35:33;101197.69;;;11.99;98.74
45541;BME280;31265;49.680;8.608;2023-04-08T09:38:02;101200.19;;;12.41;89.35
45541;BME280;31265;49.680;8.608;2023-04-08T09:40:33;101201.31;;;12.30;87.18
45541;BME280;31265;49.680;8.608;2023-04-08T09:43:04;101206.88;;;12.38;88.08
45541;BME280;31265;49.680;8.608;2023-04-08T09:45:33;101202.56;;;12.14;91.52
45541;BME280;31265;49.680;8.608;2023-04-08T09:48:09;101202.41;;;12.27;86.88
45541;BME280;31265;49.680;8.608;2023-04-08T09:50:46;101194.59;;;12.18;90.11
45541;BME280;31265;49.680;8.608;2023-04-08T09:53:19;101202.00;;;12.08;85.02
45541;BME280;31265;49.680;8.608;2023-04-08T09:55:56;101196.78;;;12.04;81.63
45541;BME280;31265;49.680;8.608;2023-04-08T09:58:32;101207.94;;;12.12;92.46
45541;BME280;31265;49.680;8.608;2023-04-08T10:01:03;101198.31;;;11.76;93.29
45541;BME280;31265;49.680;8.608;2023-04-08T10:03:34;101193.13;;;11.73;93.46
45541;BME280;31265;49.680;8.608;2023-04-08T10:06:04;101203.44;;;11.65;97.92
45541;BME280;31265;49.680;8.608;2023-04-08T10:08:34;101201.03;;;11.61;98.64
45541;BME280;31265;49.680;8.608;2023-04-08T10:11:05;101208.13;;;11.70;98.36
45541;BME280;31265;49.680;8.608;2023-04-08T10:13:34;101201.19;;;11.92;87.76
45541;BME280;31265;49.680;8.608;2023-04-08T10:16:24;101209.41;;;12.13;88.31
45541;BME280;31265;49.680;8.608;2023-04-08T10:18:54;101203.44;;;12.01;80.32
45541;BME280;31265;49.680;8.608;2023-04-08T10:21:33;101201.41;;;11.57;76.99
45541;BME280;31265;49.680;8.608;2023-04-08T10:24:07;101214.50;;;11.49;78.21
45541;BME280;31265;49.680;8.608;2023-04-08T10:26:39;101222.34;;;11.58;79.14
45541;BME280;31265;49.680;8.608;2023-04-08T10:29:33;101213.22;;;11.87;75.42
45541;BME280;31265;49.680;8.608;2023-04-08T10:32:02;101213.06;;;11.92;74.25
45541;BME280;31265;49.680;8.608;2023-04-08T10:34:30;101212.00;;;12.03;77.82
45541;BME280;31265;49.680;8.608;2023-04-08T10:36:58;101220.03;;;12.22;73.64
45541;BME280;31265;49.680;8.608;2023-04-08T10:39:29;101216.88;;;12.33;75.81
45541;BME280;31265;49.680;8.608;2023-04-08T10:42:00;101223.94;;;12.34;71.02
45541;BME280;31265;49.680;8.608;2023-04-08T10:44:28;101215.00;;;12.20;69.63
45541;BME280;31265;49.680;8.608;2023-04-08T10:46:57;101212.84;;;12.50;71.42
45541;BME280;31265;49.680;8.608;2023-04-08T10:49:32;101209.13;;;12.55;72.47
45541;BME280;31265;49.680;8.608;2023-04-08T10:52:05;101211.56;;;12.74;67.00
45541;BME280;31265;49.680;8.608;2023-04-08T10:54:35;101207.28;;;13.03;66.66
45541;BME280;31265;49.680;8.608;2023-04-08T10:57:05;101210.44;;;13.00;66.71
45541;BME280;31265;49.680;8.608;2023-04-08T10:59:34;101213.03;;;12.82;66.33
45541;BME280;31265;49.680;8.608;2023-04-08T11:02:02;101206.16;;;12.76;66.79
45541;BME280;31265;49.680;8.608;2023-04-08T11:04:31;101210.59;;;12.56;66.08
45541;BME280;31265;49.680;8.608;2023-04-08T11:07:04;101205.03;;;12.48;68.19
45541;BME280;31265;49.680;8.608;2023-04-08T11:09:34;101207.38;;;12.13;68.98
45541;BME280;31265;49.680;8.608;2023-04-08T11:12:03;101199.63;;;12.19;72.10
45541;BME280;31265;49.680;8.608;2023-04-08T11:14:39;101194.63;;;12.41;72.81
45541;BME280;31265;49.680;8.608;2023-04-08T11:17:10;101205.78;;;12.48;70.13
45541;BME280;31265;49.680;8.608;2023-04-08T11:19:41;101210.41;;;12.38;68.69
45541;BME280;31265;49.680;8.608;2023-04-08T11:22:11;101206.09;;;12.14;67.83
45541;BME280;31265;49.680;8.608;2023-04-08T11:24:39;101198.94;;;12.65;67.87
45541;BME280;31265;49.680;8.608;2023-04-08T11:27:08;101194.44;;;13.08;65.28
45541;BME280;31265;49.680;8.608;2023-04-08T11:29:38;101203.38;;;13.14;61.70
45541;BME280;31265;49.680;8.608;2023-04-08T11:32:07;101209.16;;;13.01;60.25
45541;BME280;31265;49.680;8.608;2023-04-08T11:34:38;101208.03;;;13.04;60.47
45541;BME280;31265;49.680;8.608;2023-04-08T11:37:06;101201.16;;;12.89;63.11
45541;BME280;31265;49.680;8.608;2023-04-08T11:39:39;101193.00;;;12.76;60.94
45541;BME280;31265;49.680;8.608;2023-04-08T11:42:08;101183.16;;;12.67;63.89
45541;BME280;31265;49.680;8.608;2023-04-08T11:44:44;101190.94;;;13.00;63.14
45541;BME280;31265;49.680;8.608;2023-04-08T11:47:13;101193.31;;;13.26;63.12
45541;BME280;31265;49.680;8.608;2023-04-08T11:49:44;101179.97;;;13.81;64.92
45541;BME280;31265;49.680;8.608;2023-04-08T11:52:13;101187.03;;;14.47;60.44
45541;BME280;31265;49.680;8.608;2023-04-08T11:54:42;101181.69;;;15.09;62.21
45541;BME280;31265;49.680;8.608;2023-04-08T11:57:11;101186.84;;;15.82;57.34
45541;BME280;31265;49.680;8.608;2023-04-08T11:59:40;101184.13;;;15.57;55.53
45541;BME280;31265;49.680;8.608;2023-04-08T12:02:10;101182.31;;;14.57;59.03
45541;BME280;31265;49.680;8.608;2023-04-08T12:04:39;101187.16;;;14.24;60.27
45541;BME280;31265;49.680;8.608;2023-04-08T12:07:07;101182.03;;;14.13;60.94
45541;BME280;31265;49.680;8.608;2023-04-08T12:09:36;101185.47;;;14.29;60.37
45541;BME280;31265;49.680;8.608;2023-04-08T12:12:05;101181.00;;;14.26;60.82
45541;BME280;31265;49.680;8.608;2023-04-08T12:14:33;101191.13;;;15.14;61.80
45541;BME280;31265;49.680;8.608;2023-04-08T12:17:02;101182.69;;;14.54;59.38
45541;BME280;31265;49.680;8.608;2023-04-08T12:19:32;101179.25;;;14.38;61.15
45541;BME280;31265;49.680;8.608;2023-04-08T12:22:03;101180.56;;;14.04;65.50
45541;BME280;31265;49.680;8.608;2023-04-08T12:24:31;101176.50;;;14.63;68.56
45541;BME280;31265;49.680;8.608;2023-04-08T12:27:00;101176.09;;;14.67;63.17
45541;BME280;31265;49.680;8.608;2023-04-08T12:29:31;101177.88;;;14.22;65.08
45541;BME280;31265;49.680;8.608;2023-04-08T12:31:59;101175.91;;;14.14;67.42
45541;BME280;31265;49.680;8.608;2023-04-08T12:34:28;101175.59;;;14.60;67.01
45541;BME280;31265;49.680;8.608;2023-04-08T12:36:58;101174.28;;;14.61;65.95
45541;BME280;31265;49.680;8.608;2023-04-08T12:39:27;101178.06;;;14.56;69.44
45541;BME280;31265;49.680;8.608;2023-04-08T12:41:55;101170.84;;;14.71;71.18
45541;BME280;31265;49.680;8.608;2023-04-08T12:44:25;101175.63;;;14.78;65.51
45541;BME280;31265;49.680;8.608;2023-04-08T12:46:55;101165.91;;;14.61;65.87
45541;BME280;31265;49.680;8.608;2023-04-08T12:49:24;101168.00;;;15.13;68.49
45541;BME280;31265;49.680;8.608;2023-04-08T12:51:54;101157.34;;;15.37;64.82
45541;BME280;31265;49.680;8.608;2023-04-08T12:54:23;101143.63;;;14.96;66.58
45541;BME280;31265;49.680;8.608;2023-04-08T12:56:54;101143.94;;;15.35;65.65
45541;BME280;31265;49.680;8.608;2023-04-08T12:59:23;101147.72;;;15.13;64.96
45541;BME280;31265;49.680;8.608;2023-04-08T13:01:51;101152.31;;;15.35;65.23
45541;BME280;31265;49.680;8.608;2023-04-08T13:04:20;101147.59;;;15.55;63.52
45541;BME280;31265;49.680;8.608;2023-04-08T13:06:48;101149.00;;;15.64;63.75
45541;BME280;31265;49.680;8.608;2023-04-08T13:09:18;101155.94;;;15.11;65.62